Time;durP1;ratioP1;P1;durP2;ratioP2;P2;SDS_P1;SDS_P2;PMS_P1;PMS_P2;Temp;Humidity;BMP_temperature;BMP_pressure;BME280_temperature;BME280_humidity;BME280_pressure;Samples;Min_cycle;Max_cycle;Signal;HPM_P1;HPM_P2
2023/10/21 00:00:14;;;;;;;0.57;0.13;;;;;;;13.07;100.00;96151.34;5031979;28;20424;-78
2023/10/21 00:02:39;;;;;;;0.10;0.10;;;;;;;13.70;100.00;96173.06;5045305;28;20021;-77
2023/10/21 00:05:06;;;;;;;0.45;0.20;;;;;;;14.18;100.00;96200.22;5043960;28;20028;-77
2023/10/21 00:07:31;;;;;;;0.63;0.30;;;;;;;14.25;100.00;96181.66;5047131;28;20037;-77
2023/10/21 00:09:56;;;;;;;0.93;0.35;;;;;;;14.09;100.00;96158.47;5044355;28;20044;-77
2023/10/21 00:12:21;;;;;;;2.00;0.30;;;;;;;14.21;100.00;96190.69;5043590;28;20022;-77
2023/10/21 00:14:47;;;;;;;0.95;0.30;;;;;;;13.93;100.00;96159.75;5038710;28;20025;-77
2023/10/21 00:17:12;;;;;;;0.90;0.40;;;;;;;14.23;100.00;96208.34;5045498;28;20013;-80
2023/10/21 00:19:37;;;;;;;0.70;0.30;;;;;;;14.23;100.00;96208.34;5062175;28;20021;-77
2023/10/21 00:22:03;;;;;;;2.10;0.40;;;;;;;14.06;100.00;96197.09;5045974;28;20032;-75
2023/10/21 00:24:28;;;;;;;1.10;0.52;;;;;;;14.22;100.00;96208.59;5064668;28;20027;-77
2023/10/21 00:26:54;;;;;;;0.30;0.20;;;;;;;14.33;100.00;96215.56;5045668;28;20020;-77
2023/10/21 00:29:20;;;;;;;3.72;0.28;;;;;;;14.41;100.00;96211.38;5045472;28;20028;-78
2023/10/21 00:31:45;;;;;;;0.90;0.35;;;;;;;14.67;100.00;96237.19;5039382;28;20097;-76
2023/10/21 00:34:11;;;;;;;0.55;0.20;;;;;;;14.82;100.00;96219.03;5052039;28;20039;-75
2023/10/21 00:36:36;;;;;;;3.83;0.40;;;;;;;14.83;100.00;96220.66;5055088;28;20035;-78
2023/10/21 00:39:02;;;;;;;1.00;0.30;;;;;;;14.77;100.00;96238.94;5064120;28;20024;-77
2023/10/21 00:41:28;;;;;;;0.40;0.10;;;;;;;14.79;100.00;96249.56;5046481;28;20229;-77
2023/10/21 00:43:53;;;;;;;0.68;0.17;;;;;;;14.77;100.00;96236.22;5045076;28;20021;-78
2023/10/21 00:46:19;;;;;;;3.40;0.30;;;;;;;14.80;100.00;96243.00;5045479;28;20036;-76
2023/10/21 00:48:48;;;;;;;0.35;0.20;;;;;;;14.78;100.00;96259.63;5040343;28;20032;-78
2023/10/21 00:51:15;;;;;;;0.63;0.20;;;;;;;14.81;100.00;96260.97;5046665;28;20032;-78
2023/10/21 00:53:41;;;;;;;0.47;0.28;;;;;;;14.76;100.00;96248.22;5035123;28;20326;-77
2023/10/21 00:56:07;;;;;;;0.30;0.10;;;;;;;14.81;100.00;96275.38;5045666;28;20029;-77
2023/10/21 00:58:32;;;;;;;0.35;0.30;;;;;;;14.46;100.00;96249.38;5045015;28;20337;-79
2023/10/21 01:01:03;;;;;;;1.27;0.20;;;;;;;14.61;100.00;96286.53;5063192;28;20035;-77
2023/10/21 01:03:29;;;;;;;1.58;0.20;;;;;;;14.58;100.00;96287.91;5043543;28;20191;-79
2023/10/21 01:05:55;;;;;;;1.40;0.50;;;;;;;14.53;100.00;96285.25;5070236;28;20021;-78
2023/10/21 01:08:21;;;;;;;2.05;0.52;;;;;;;14.59;100.00;96318.66;5044094;28;20104;-77
2023/10/21 01:10:46;;;;;;;0.35;0.20;;;;;;;14.39;100.00;96285.13;5052459;28;20036;-77
2023/10/21 01:13:12;;;;;;;0.10;0.10;;;;;;;14.49;100.00;96303.25;5068712;28;20097;-78
2023/10/21 01:15:37;;;;;;;0.85;0.32;;;;;;;14.44;100.00;96301.38;5049607;28;20083;-78
2023/10/21 01:18:08;;;;;;;0.38;0.20;;;;;;;14.40;100.00;96318.56;5048482;28;20135;-78
2023/10/21 01:20:39;;;;;;;0.77;0.20;;;;;;;14.23;100.00;96303.50;5041865;28;20104;-78
2023/10/21 01:23:06;;;;;;;0.68;0.20;;;;;;;14.21;100.00;96322.03;5049125;28;20326;-77
2023/10/21 01:25:32;;;;;;;3.35;0.20;;;;;;;14.25;100.00;96338.56;5050064;28;20028;-78
2023/10/21 01:27:58;;;;;;;0.28;0.20;;;;;;;14.20;100.00;96349.50;5050632;28;20021;-78
2023/10/21 01:30:24;;;;;;;2.17;0.20;;;;;;;14.13;100.00;96349.84;5061366;28;20337;-79
2023/10/21 01:32:50;;;;;;;0.32;0.20;;;;;;;14.10;100.00;96361.28;5056125;28;20021;-76
2023/10/21 01:35:17;;;;;;;0.50;0.20;;;;;;;14.13;100.00;96352.56;5057211;28;20092;-80
2023/10/21 01:37:43;;;;;;;0.85;0.05;;;;;;;14.10;100.00;96355.84;5056575;28;20021;-79
2023/10/21 01:40:10;;;;;;;1.50;0.30;;;;;;;14.08;100.00;96363.47;5048559;28;20052;-80
2023/10/21 01:42:37;;;;;;;1.13;0.30;;;;;;;14.07;100.00;96359.16;5063861;28;20021;-78
2023/10/21 01:45:04;;;;;;;0.95;0.20;;;;;;;14.05;100.00;96377.66;5069879;28;20027;-78
2023/10/21 01:47:30;;;;;;;0.55;0.20;;;;;;;13.99;100.00;96366.00;5068111;28;20245;-77
2023/10/21 01:49:55;;;;;;;0.55;0.25;;;;;;;13.88;100.00;96356.31;5051052;28;20047;-77
2023/10/21 01:52:20;;;;;;;0.20;0.20;;;;;;;14.06;100.00;96395.56;5046539;28;20032;-79
2023/10/21 01:54:46;;;;;;;0.30;0.25;;;;;;;14.07;100.00;96399.09;5047854;28;20028;-80
2023/10/21 01:57:11;;;;;;;0.70;0.35;;;;;;;14.00;100.00;96402.16;5046350;28;20158;-77
2023/10/21 01:59:39;;;;;;;1.08;0.50;;;;;;;13.82;100.00;96385.44;5051315;28;20025;-77
2023/10/21 02:02:05;;;;;;;1.95;0.50;;;;;;;13.93;100.00;96407.09;5066182;28;20031;-79
2023/10/21 02:04:31;;;;;;;0.10;0.10;;;;;;;13.85;100.00;96407.72;5050317;28;20044;-79
2023/10/21 02:06:56;;;;;;;2.83;0.20;;;;;;;13.95;100.00;96429.38;5049228;28;20029;-79
2023/10/21 02:09:21;;;;;;;0.65;0.22;;;;;;;13.93;100.00;96424.22;5052611;28;20248;-77
2023/10/21 02:11:47;;;;;;;0.75;0.20;;;;;;;13.89;100.00;96409.59;5049869;28;20039;-78
2023/10/21 02:14:12;;;;;;;0.40;0.17;;;;;;;13.99;100.00;96436.69;5049350;28;20025;-78
2023/10/21 02:16:38;;;;;;;0.40;0.20;;;;;;;13.85;100.00;96427.53;5047244;28;20013;-78
2023/10/21 02:19:03;;;;;;;1.75;0.28;;;;;;;13.76;100.00;96430.06;5051226;28;20071;-78
2023/10/21 02:21:29;;;;;;;0.17;0.00;;;;;;;13.81;100.00;96437.38;5050104;28;20092;-78
2023/10/21 02:23:54;;;;;;;0.73;0.40;;;;;;;13.85;100.00;96453.91;5046363;28;20326;-79
2023/10/21 02:26:19;;;;;;;0.55;0.20;;;;;;;13.45;100.00;96402.25;5047503;28;20044;-76
2023/10/21 02:28:44;;;;;;;0.15;0.10;;;;;;;13.89;100.00;96476.72;5069059;28;20047;-78
2023/10/21 02:31:10;;;;;;;0.95;0.20;;;;;;;13.93;100.00;96475.06;5049879;28;20214;-79
2023/10/21 02:33:35;;;;;;;1.05;0.22;;;;;;;13.84;100.00;96474.03;5046078;28;20029;-79
2023/10/21 02:36:00;;;;;;;1.15;0.10;;;;;;;13.77;100.00;96474.34;5050298;28;20017;-77
2023/10/21 02:38:26;;;;;;;0.17;0.13;;;;;;;13.73;100.00;96481.44;5049029;28;20261;-79
2023/10/21 02:40:51;;;;;;;1.60;0.30;;;;;;;13.78;100.00;96498.53;5045925;28;20017;-78
2023/10/21 02:43:17;;;;;;;0.22;0.20;;;;;;;13.77;100.00;96496.09;5048749;28;20021;-78
2023/10/21 02:45:42;;;;;;;0.40;0.20;;;;;;;13.70;100.00;96482.81;5044429;28;20040;-79
2023/10/21 02:48:08;;;;;;;0.63;0.25;;;;;;;13.64;100.00;96483.91;5047413;28;20060;-79
2023/10/21 02:50:33;;;;;;;0.57;0.20;;;;;;;13.73;100.00;96514.88;5046108;28;20016;-79
2023/10/21 02:52:58;;;;;;;1.83;0.30;;;;;;;13.65;100.00;96514.63;5043223;28;20017;-79
2023/10/21 02:55:27;;;;;;;1.38;0.32;;;;;;;13.59;100.00;96524.69;5047061;28;20017;-79
2023/10/21 02:57:53;;;;;;;0.32;0.20;;;;;;;13.52;100.00;96533.16;5057954;28;20044;-77
2023/10/21 03:00:21;;;;;;;0.80;0.10;;;;;;;13.71;100.00;96546.13;5049689;28;20021;-78
2023/10/21 03:02:48;;;;;;;0.60;0.17;;;;;;;13.74;100.00;96548.28;5043687;28;20046;-77
2023/10/21 03:05:14;;;;;;;0.32;0.10;;;;;;;13.70;100.00;96537.16;5049282;28;20082;-78
2023/10/21 03:07:40;;;;;;;0.35;0.20;;;;;;;13.81;100.00;96543.38;5047925;28;20036;-77
2023/10/21 03:10:06;;;;;;;0.68;0.20;;;;;;;13.77;100.00;96542.28;5046648;28;20100;-79
2023/10/21 03:12:32;;;;;;;0.03;0.03;;;;;;;13.55;100.00;96516.31;5063852;28;20113;-79
2023/10/21 03:15:00;;;;;;;0.70;0.20;;;;;;;13.64;100.00;96551.84;5045542;28;20025;-78
2023/10/21 03:17:25;;;;;;;0.10;0.10;;;;;;;13.46;100.00;96552.47;5048082;28;20084;-79
2023/10/21 03:19:51;;;;;;;0.50;0.25;;;;;;;13.45;100.00;96561.72;5045698;28;20025;-79
2023/10/21 03:22:16;;;;;;;0.65;0.20;;;;;;;13.17;100.00;96542.19;5048690;28;20028;-77
2023/10/21 03:24:41;;;;;;;3.75;0.40;;;;;;;13.17;100.00;96553.06;5049329;28;20032;-79
2023/10/21 03:27:07;;;;;;;0.40;0.20;;;;;;;12.93;100.00;96536.56;5066278;28;20033;-77
2023/10/21 03:29:33;;;;;;;0.82;0.20;;;;;;;13.06;100.00;96576.69;5058025;28;20029;-77
2023/10/21 03:31:58;;;;;;;0.60;0.30;;;;;;;12.99;100.00;96578.88;5046749;28;20020;-79
2023/10/21 03:34:23;;;;;;;2.88;0.60;;;;;;;12.77;100.00;96571.03;5044340;28;20024;-79
2023/10/21 03:36:48;;;;;;;0.55;0.30;;;;;;;12.70;100.00;96571.28;5045702;28;20028;-77
2023/10/21 03:39:14;;;;;;;1.70;0.45;;;;;;;12.71;100.00;96588.41;5042879;28;20029;-78
2023/10/21 03:41:39;;;;;;;1.13;0.43;;;;;;;12.59;100.00;96587.84;5032017;28;20017;-78
2023/10/21 03:44:04;;;;;;;2.58;0.57;;;;;;;12.48;100.00;96595.19;5046949;28;20029;-78
2023/10/21 03:46:30;;;;;;;2.05;0.30;;;;;;;12.45;100.00;96606.56;5045168;28;20063;-77
2023/10/21 03:48:56;;;;;;;1.00;0.30;;;;;;;12.47;100.00;96613.34;5042194;28;20021;-77
2023/10/21 03:51:21;;;;;;;0.88;0.22;;;;;;;12.37;100.00;96617.94;5044882;28;20048;-77
2023/10/21 03:53:47;;;;;;;1.73;0.50;;;;;;;12.27;100.00;96633.09;5049966;28;20017;-76
2023/10/21 03:56:13;;;;;;;1.23;0.50;;;;;;;12.12;100.00;96614.06;5045826;28;20017;-78
2023/10/21 03:58:39;;;;;;;1.48;0.60;;;;;;;12.15;100.00;96624.38;5041678;28;20310;-78
2023/10/21 04:01:05;;;;;;;0.77;0.35;;;;;;;12.23;100.00;96626.56;5044550;28;20021;-78
2023/10/21 04:03:31;;;;;;;0.70;0.40;;;;;;;12.14;100.00;96633.59;5033967;28;20097;-77
2023/10/21 04:05:57;;;;;;;0.55;0.30;;;;;;;11.92;100.00;96624.84;5044627;28;20043;-77
2023/10/21 04:08:23;;;;;;;1.52;0.60;;;;;;;11.84;100.00;96613.44;5063098;28;20028;-78
2023/10/21 04:10:48;;;;;;;0.68;0.20;;;;;;;12.04;100.00;96645.22;5044394;28;20027;-76
2023/10/21 04:13:14;;;;;;;1.52;0.20;;;;;;;12.02;100.00;96643.84;5042567;28;20056;-77
2023/10/21 04:15:40;;;;;;;3.78;0.57;;;;;;;12.10;100.00;96664.22;5045861;28;20021;-76
2023/10/21 04:18:05;;;;;;;3.90;0.20;;;;;;;12.14;100.00;96660.72;5038630;28;20032;-77
2023/10/21 04:20:33;;;;;;;0.20;0.10;;;;;;;12.14;100.00;96666.13;5042740;28;20262;-77
2023/10/21 04:22:59;;;;;;;0.30;0.10;;;;;;;12.09;100.00;96663.41;5041317;28;20017;-77
2023/10/21 04:25:26;;;;;;;0.90;0.30;;;;;;;12.13;100.00;96672.66;5045588;28;20029;-77
2023/10/21 04:27:52;;;;;;;2.55;0.40;;;;;;;12.18;100.00;96669.94;5043042;28;20053;-76
2023/10/21 04:30:17;;;;;;;1.05;0.40;;;;;;;12.17;100.00;96675.63;5034748;28;20053;-79
2023/10/21 04:32:42;;;;;;;4.32;0.70;;;;;;;12.13;100.00;96674.50;5033298;28;20022;-76
2023/10/21 04:35:08;;;;;;;1.17;0.60;;;;;;;12.09;100.00;96670.72;5043792;28;20028;-78
2023/10/21 04:37:34;;;;;;;0.85;0.60;;;;;;;11.97;100.00;96669.06;5036198;28;20021;-76
2023/10/21 04:40:00;;;;;;;1.63;0.68;;;;;;;12.00;100.00;96692.09;5057715;28;20055;-76
2023/10/21 04:42:26;;;;;;;1.33;0.47;;;;;;;12.12;100.00;96706.22;5044471;28;20029;-75
2023/10/21 04:44:52;;;;;;;1.08;0.47;;;;;;;11.99;100.00;96693.97;5043983;28;20121;-75
2023/10/21 04:47:17;;;;;;;0.70;0.30;;;;;;;12.05;100.00;96709.19;5040077;28;20052;-77
2023/10/21 04:49:43;;;;;;;3.72;0.50;;;;;;;12.04;100.00;96712.16;5044558;28;20021;-78
2023/10/21 04:52:10;;;;;;;3.50;0.40;;;;;;;12.01;100.00;96713.50;5041038;28;20025;-81
2023/10/21 04:54:35;;;;;;;1.38;0.80;;;;;;;12.03;100.00;96724.09;5039002;28;20013;-81
2023/10/21 04:57:01;;;;;;;0.90;0.40;;;;;;;11.82;100.00;96701.47;5039554;28;20025;-80
2023/10/21 04:59:26;;;;;;;1.88;0.50;;;;;;;11.81;100.00;96710.66;5060318;28;20024;-80
2023/10/21 05:01:51;;;;;;;0.73;0.20;;;;;;;11.83;100.00;96719.34;5055564;28;20027;-79
2023/10/21 05:04:16;;;;;;;1.48;0.40;;;;;;;11.86;100.00;96729.69;5054001;28;20067;-75
2023/10/21 05:06:42;;;;;;;0.10;0.10;;;;;;;11.83;100.00;96735.59;5044727;28;20017;-77
2023/10/21 05:09:07;;;;;;;0.68;0.50;;;;;;;11.83;100.00;96735.59;5044518;28;20104;-81
2023/10/21 05:11:32;;;;;;;1.45;0.50;;;;;;;11.95;100.00;96743.56;5045848;28;20056;-78
2023/10/21 05:13:58;;;;;;;0.82;0.20;;;;;;;11.95;100.00;96754.41;5045320;28;20216;-79
2023/10/21 05:16:23;;;;;;;0.32;0.32;;;;;;;12.07;100.00;96765.84;5061943;28;20100;-78
2023/10/21 05:18:48;;;;;;;1.33;0.30;;;;;;;12.11;100.00;96771.56;5045271;28;20024;-80
2023/10/21 05:21:14;;;;;;;0.82;0.47;;;;;;;12.12;100.00;96779.41;5062252;28;20032;-78
2023/10/21 05:23:39;;;;;;;0.80;0.45;;;;;;;12.20;100.00;96786.25;5062991;28;20020;-79
2023/10/21 05:26:05;;;;;;;0.60;0.38;;;;;;;12.21;100.00;96794.13;5045156;28;20221;-80
2023/10/21 05:28:31;;;;;;;0.70;0.30;;;;;;;12.12;100.00;96784.84;5049050;28;20029;-79
2023/10/21 05:30:57;;;;;;;0.95;0.43;;;;;;;11.99;100.00;96783.41;5046491;28;20095;-72
2023/10/21 05:33:23;;;;;;;1.75;0.68;;;;;;;12.07;100.00;96791.03;5061201;28;20029;-72
2023/10/21 05:35:48;;;;;;;1.98;0.30;;;;;;;12.22;100.00;96808.50;5061027;28;20135;-72
2023/10/21 05:38:13;;;;;;;0.25;0.20;;;;;;;12.11;100.00;96780.50;5061158;28;20044;-72
2023/10/21 05:40:41;;;;;;;0.28;0.20;;;;;;;12.39;100.00;96822.69;5037704;28;20025;-72
2023/10/21 05:43:06;;;;;;;1.05;0.30;;;;;;;12.37;100.00;96815.91;5053532;28;20028;-71
2023/10/21 05:45:31;;;;;;;1.40;0.40;;;;;;;12.21;100.00;96823.13;5057295;28;20033;-72
2023/10/21 05:47:57;;;;;;;1.30;0.50;;;;;;;12.10;100.00;96821.41;5057802;28;20024;-73
2023/10/21 05:50:24;;;;;;;0.38;0.30;;;;;;;12.08;100.00;96840.66;5058778;28;20322;-73
2023/10/21 05:52:51;;;;;;;0.93;0.50;;;;;;;12.06;100.00;96843.63;5069863;23;20055;-61
2023/10/21 05:55:18;;;;;;;1.45;1.00;;;;;;;12.07;100.00;96841.72;5010785;28;20382;-61
2023/10/21 05:57:43;;;;;;;1.33;0.90;;;;;;;12.07;100.00;96855.28;5012462;28;20072;-61
2023/10/21 06:00:09;;;;;;;1.52;0.73;;;;;;;12.05;100.00;96852.00;5012795;28;20022;-61
2023/10/21 06:02:35;;;;;;;3.55;0.70;;;;;;;12.04;100.00;96859.34;5027857;28;20376;-61
2023/10/21 06:05:00;;;;;;;1.77;0.68;;;;;;;12.12;100.00;96873.47;5011103;28;20029;-65
2023/10/21 06:07:26;;;;;;;0.50;0.40;;;;;;;12.17;100.00;96868.91;5016108;28;20028;-61
2023/10/21 06:09:53;;;;;;;1.45;0.73;;;;;;;12.16;100.00;96882.75;5015484;28;20056;-70
2023/10/21 06:12:18;;;;;;;0.77;0.52;;;;;;;12.16;100.00;96890.88;5016706;28;20029;-61
2023/10/21 06:14:44;;;;;;;0.30;0.30;;;;;;;12.18;100.00;96885.97;5014217;28;20480;-63
2023/10/21 06:17:09;;;;;;;1.40;0.80;;;;;;;12.28;100.00;96894.19;5012794;28;20053;-61
2023/10/21 06:19:35;;;;;;;1.20;0.70;;;;;;;12.26;100.00;96902.59;5011864;28;20059;-63
2023/10/21 06:22:00;;;;;;;0.80;0.50;;;;;;;12.25;100.00;96905.56;5016551;28;20061;-63
2023/10/21 06:24:25;;;;;;;1.23;0.80;;;;;;;12.28;100.00;96922.13;5015763;28;20089;-63
2023/10/21 06:26:51;;;;;;;2.08;0.80;;;;;;;12.36;100.00;96923.53;5014123;28;20068;-61
2023/10/21 06:29:16;;;;;;;0.50;0.45;;;;;;;12.43;100.00;96926.03;5010662;28;20034;-62
2023/10/21 06:31:42;;;;;;;0.30;0.20;;;;;;;12.63;100.00;96930.78;5001602;28;20033;-61
2023/10/21 06:34:08;;;;;;;0.95;0.68;;;;;;;14.21;100.00;96897.78;5031142;28;20041;-62
2023/10/21 06:36:34;;;;;;;2.25;0.70;;;;;;;16.91;100.00;96885.53;5007841;28;20376;-61
2023/10/21 06:38:59;;;;;;;5.35;0.80;;;;;;;18.40;100.00;96885.81;5016334;28;20030;-61
2023/10/21 06:41:25;;;;;;;0.50;0.20;;;;;;;19.21;100.00;96893.63;5016059;28;20068;-63
2023/10/21 06:43:51;;;;;;;1.00;0.30;;;;;;;19.10;100.00;96899.59;5008349;28;20026;-61
2023/10/21 06:46:18;;;;;;;1.70;0.50;;;;;;;17.60;100.00;96900.47;5009902;28;20083;-61
2023/10/21 06:48:45;;;;;;;3.78;0.70;;;;;;;17.35;100.00;96914.50;5007306;28;20033;-61
2023/10/21 06:54:34;;;;;;;1.33;0.70;;;;;;;22.70;100.00;96915.19;5030884;28;20088;-62
2023/10/21 06:56:59;;;;;;;2.00;0.90;;;;;;;22.30;100.00;96924.50;5002718;28;20433;-62
2023/10/21 06:59:24;;;;;;;3.65;1.00;;;;;;;22.55;100.00;96935.81;5009698;28;20059;-61
2023/10/21 07:01:50;;;;;;;1.67;0.85;;;;;;;21.17;100.00;96937.25;5007137;28;20124;-62
2023/10/21 07:04:15;;;;;;;2.78;0.98;;;;;;;21.47;100.00;96940.28;5029043;28;20476;-62
2023/10/21 07:06:41;;;;;;;3.08;1.00;;;;;;;22.84;100.00;96942.56;5003568;28;20350;-62
2023/10/21 07:09:09;;;;;;;2.60;1.17;;;;;;;24.86;84.99;96939.81;5010482;28;20366;-61
2023/10/21 07:11:34;;;;;;;1.85;0.95;;;;;;;25.63;76.53;96952.25;5015116;28;20036;-63
2023/10/21 07:14:01;;;;;;;5.15;0.77;;;;;;;26.51;71.47;96952.50;5011831;28;20485;-68
2023/10/21 07:16:26;;;;;;;2.20;0.60;;;;;;;26.46;69.19;96967.41;5010655;28;20088;-62
2023/10/21 07:18:52;;;;;;;1.80;0.47;;;;;;;26.10;68.91;96971.13;5030726;28;20033;-61
2023/10/21 07:21:18;;;;;;;3.28;0.75;;;;;;;26.89;65.73;96963.09;5015046;28;20029;-62
2023/10/21 07:23:45;;;;;;;0.80;0.30;;;;;;;26.74;64.48;96972.19;5014163;28;20965;-63
2023/10/21 07:26:11;;;;;;;0.88;0.28;;;;;;;26.67;65.82;96972.81;5011721;28;20054;-62
2023/10/21 07:28:37;;;;;;;1.35;0.40;;;;;;;26.75;64.14;96980.19;5012470;28;20500;-63
2023/10/21 07:31:03;;;;;;;4.38;0.52;;;;;;;26.41;65.18;96998.19;5018665;28;20473;-62
2023/10/21 07:33:28;;;;;;;1.88;0.50;;;;;;;26.51;65.55;96999.66;5017420;28;20032;-63
2023/10/21 07:35:54;;;;;;;1.33;0.50;;;;;;;26.61;63.71;96988.09;5023268;28;20448;-63
2023/10/21 07:38:20;;;;;;;0.65;0.20;;;;;;;25.82;64.34;96980.13;5015931;28;20032;-63
2023/10/21 07:40:47;;;;;;;2.10;0.32;;;;;;;25.51;65.49;97006.44;5002533;28;20025;-62
2023/10/21 07:43:13;;;;;;;1.55;0.40;;;;;;;26.32;65.55;96992.78;5010101;28;20037;-62
2023/10/21 07:45:42;;;;;;;1.50;0.40;;;;;;;26.01;65.17;97005.31;5011512;28;20025;-62
2023/10/21 07:48:08;;;;;;;1.63;0.47;;;;;;;26.49;63.45;97011.13;5007708;28;20108;-62
2023/10/21 07:50:33;;;;;;;0.40;0.20;;;;;;;27.00;62.42;97003.06;5001875;28;20505;-62
2023/10/21 07:52:59;;;;;;;1.67;0.40;;;;;;;26.34;62.38;97022.94;5010894;28;20032;-62
2023/10/21 07:55:24;;;;;;;0.93;0.20;;;;;;;26.14;64.42;97033.00;5017385;28;20022;-55
2023/10/21 07:57:50;;;;;;;0.70;0.28;;;;;;;26.99;62.12;97034.75;5011322;28;20022;-55
2023/10/21 08:00:15;;;;;;;0.90;0.30;;;;;;;27.89;59.08;97042.69;5020709;28;20036;-55
2023/10/21 08:02:42;;;;;;;1.45;0.40;;;;;;;27.28;59.72;97044.69;5012872;28;20124;-55
2023/10/21 08:05:08;;;;;;;1.17;0.30;;;;;;;29.09;56.23;97058.88;5018321;28;20095;-55
2023/10/21 08:07:39;;;;;;;1.17;0.50;;;;;;;29.46;55.30;97061.97;5017581;28;20473;-55
2023/10/21 08:10:05;;;;;;;1.15;0.30;;;;;;;28.94;54.98;97057.75;5014066;28;20075;-55
2023/10/21 08:12:32;;;;;;;1.00;0.17;;;;;;;26.29;60.14;97062.00;5002881;28;20028;-56
2023/10/21 08:15:04;;;;;;;1.13;0.30;;;;;;;26.78;61.05;97062.72;5016668;28;20035;-55
2023/10/21 08:17:30;;;;;;;0.95;0.20;;;;;;;26.41;61.14;97054.47;5006483;28;20107;-56
2023/10/21 08:19:56;;;;;;;1.05;0.30;;;;;;;27.29;59.73;97060.19;5014799;28;20025;-56
2023/10/21 08:22:22;;;;;;;0.75;0.25;;;;;;;28.74;56.79;97066.09;5032506;28;20028;-56
2023/10/21 08:24:47;;;;;;;0.90;0.43;;;;;;;29.33;54.97;97083.59;5022065;28;20029;-56
2023/10/21 08:27:13;;;;;;;1.27;0.60;;;;;;;29.46;53.76;97078.69;5006501;28;20397;-56
2023/10/21 08:29:38;;;;;;;0.77;0.30;;;;;;;29.83;52.30;97080.94;5009123;28;20041;-56
2023/10/21 08:32:04;;;;;;;0.38;0.17;;;;;;;29.51;52.28;97094.28;5020945;28;20021;-56
2023/10/21 08:34:31;;;;;;;0.30;0.13;;;;;;;28.04;54.33;97083.56;5008979;28;20044;-57
2023/10/21 08:36:56;;;;;;;1.08;0.30;;;;;;;28.24;55.26;97094.72;5008547;28;20025;-57
2023/10/21 08:39:22;;;;;;;1.13;0.20;;;;;;;28.76;53.84;97086.00;5007456;28;20021;-56
2023/10/21 08:41:49;;;;;;;1.20;0.20;;;;;;;31.10;50.77;97077.66;5007789;28;20230;-56
2023/10/21 08:44:16;;;;;;;1.20;0.17;;;;;;;33.09;46.73;97085.34;5005484;28;20026;-56
2023/10/21 08:46:43;;;;;;;1.40;0.17;;;;;;;33.20;45.49;97095.75;5005500;28;20032;-56
2023/10/21 08:49:12;;;;;;;1.00;0.22;;;;;;;32.46;44.99;97097.72;5007244;28;20030;-56
2023/10/21 08:51:37;;;;;;;0.40;0.13;;;;;;;35.37;43.00;97098.94;5003254;28;20333;-56
2023/10/21 08:54:04;;;;;;;0.35;0.20;;;;;;;32.78;43.83;97097.97;5009220;28;20025;-57
2023/10/21 08:56:30;;;;;;;1.55;0.20;;;;;;;31.57;45.14;97097.75;5005282;28;20116;-56
2023/10/21 08:58:56;;;;;;;0.55;0.20;;;;;;;31.75;44.71;97095.94;5003346;28;20871;-55
2023/10/21 09:01:23;;;;;;;1.63;0.22;;;;;;;32.46;43.26;97092.97;5008169;28;20056;-56
2023/10/21 09:03:49;;;;;;;0.90;0.20;;;;;;;33.68;42.89;97099.16;5003655;28;20037;-55
2023/10/21 09:06:17;;;;;;;0.98;0.20;;;;;;;34.63;41.37;97104.41;5007267;28;20060;-55
2023/10/21 09:08:43;;;;;;;0.40;0.22;;;;;;;34.66;39.80;97090.38;5003811;28;20461;-55
2023/10/21 09:11:10;;;;;;;1.13;0.30;;;;;;;35.41;41.01;97099.72;5006401;28;20052;-57
2023/10/21 09:13:40;;;;;;;1.55;0.20;;;;;;;35.59;41.26;97105.28;5006508;28;20077;-57
2023/10/21 09:16:30;;;;;;;0.40;0.15;;;;;;;32.95;43.73;97122.47;5006942;28;20499;-58
2023/10/21 09:19:07;;;;;;;2.15;0.17;;;;;;;30.00;47.61;97129.81;5018605;28;20578;-58
2023/10/21 09:21:38;;;;;;;2.90;0.30;;;;;;;27.47;51.70;97132.06;5013284;28;20393;-57
2023/10/21 09:24:12;;;;;;;0.43;0.20;;;;;;;25.27;57.11;97142.88;5012918;28;20184;-55
2023/10/21 09:26:42;;;;;;;1.55;0.30;;;;;;;24.79;60.31;97148.94;5023752;28;20032;-57
2023/10/21 09:29:12;;;;;;;0.57;0.10;;;;;;;24.01;64.74;97155.72;5013838;28;20080;-55
2023/10/21 09:31:41;;;;;;;0.13;0.10;;;;;;;23.24;69.28;97158.31;5016257;28;20030;-64
2023/10/21 09:34:06;;;;;;;0.35;0.20;;;;;;;22.22;82.71;97169.69;5037620;28;20033;-56
2023/10/21 09:36:39;;;;;;;2.92;1.58;;;;;;;21.63;100.00;97159.66;5018948;28;20033;-59
2023/10/21 09:39:05;;;;;;;2.00;0.82;;;;;;;21.33;100.00;97171.44;5007580;28;20032;-55
2023/10/21 09:41:31;;;;;;;0.47;0.10;;;;;;;21.02;100.00;97177.69;5011862;28;20033;-56
2023/10/21 09:44:01;;;;;;;1.75;0.40;;;;;;;21.11;100.00;97175.81;5008706;28;20044;-59
2023/10/21 09:46:29;;;;;;;1.52;0.30;;;;;;;20.53;100.00;97171.06;5010214;28;20036;-59
2023/10/21 09:48:59;;;;;;;1.23;0.40;;;;;;;22.93;100.00;97177.78;5020245;28;20029;-60
2023/10/21 09:51:30;;;;;;;2.78;0.43;;;;;;;23.64;78.92;97180.16;5008881;28;20026;-58
2023/10/21 09:54:00;;;;;;;0.82;0.15;;;;;;;27.49;65.59;97172.22;5008727;28;20049;-59
2023/10/21 09:56:26;;;;;;;1.38;0.20;;;;;;;28.32;58.05;97179.94;5007405;28;20456;-58
2023/10/21 09:58:55;;;;;;;1.25;0.20;;;;;;;29.42;56.08;97172.53;5006084;28;20025;-58
2023/10/21 10:01:23;;;;;;;0.57;0.10;;;;;;;32.22;49.11;97177.53;5010854;28;20048;-58
2023/10/21 10:03:51;;;;;;;0.50;0.30;;;;;;;32.19;45.57;97178.28;5011620;28;20108;-58
2023/10/21 10:06:19;;;;;;;0.45;0.20;;;;;;;32.46;44.80;97170.50;5026601;28;20033;-60
2023/10/21 10:08:47;;;;;;;0.45;0.17;;;;;;;32.59;45.20;97168.25;5012821;28;20025;-61
2023/10/21 10:11:15;;;;;;;1.08;0.10;;;;;;;33.20;43.75;97174.25;5021141;28;20021;-60
2023/10/21 10:13:48;;;;;;;1.35;0.30;;;;;;;30.89;46.74;97180.72;5002349;28;20025;-60
2023/10/21 10:16:25;;;;;;;0.98;0.20;;;;;;;31.00;46.17;97179.69;5007009;28;20033;-60
2023/10/21 10:18:56;;;;;;;0.30;0.08;;;;;;;35.42;42.34;97180.06;5012209;28;20484;-60
2023/10/21 10:21:22;;;;;;;1.63;0.10;;;;;;;36.75;38.62;97175.22;5020399;28;20048;-59
2023/10/21 10:23:51;;;;;;;0.30;0.10;;;;;;;38.68;36.17;97168.31;5030833;28;20033;-57
2023/10/21 10:26:37;;;;;;;0.68;0.20;;;;;;;38.79;34.63;97160.41;5012308;28;20029;-57
2023/10/21 10:29:26;;;;;;;1.08;0.20;;;;;;;39.21;33.80;97164.47;5029484;28;20061;-58
2023/10/21 10:32:16;;;;;;;1.42;0.20;;;;;;;39.13;33.30;97156.59;5035424;28;20044;-57
2023/10/21 10:34:52;;;;;;;0.20;0.10;;;;;;;40.59;33.02;97149.72;5013888;28;20031;-58
2023/10/21 10:37:51;;;;;;;0.32;0.10;;;;;;;40.79;31.17;97149.59;5024453;28;20493;-57
2023/10/21 10:40:20;;;;;;;0.90;0.30;;;;;;;40.75;31.41;97154.59;5009665;28;20040;-58
2023/10/21 10:42:48;;;;;;;0.45;0.00;;;;;;;41.40;30.75;97156.47;5020916;28;20036;-58
2023/10/21 10:45:14;;;;;;;0.60;0.20;;;;;;;41.14;31.16;97147.88;5010767;28;20029;-58
2023/10/21 10:47:40;;;;;;;0.85;0.20;;;;;;;41.21;29.82;97165.94;5039610;28;20335;-57
2023/10/21 10:50:12;;;;;;;0.63;0.10;;;;;;;36.92;32.81;97167.81;5025112;28;20311;-56
2023/10/21 10:52:38;;;;;;;0.63;0.20;;;;;;;34.72;35.44;97169.41;5013801;28;20509;-56
2023/10/21 10:55:08;;;;;;;0.75;0.20;;;;;;;33.78;37.04;97171.28;5014350;28;20131;-56
2023/10/21 10:57:34;;;;;;;0.25;0.10;;;;;;;35.84;35.83;97167.81;5024373;28;20380;-58
2023/10/21 11:00:10;;;;;;;0.40;0.10;;;;;;;34.91;35.81;97166.16;5024303;28;20021;-56
2023/10/21 11:02:42;;;;;;;0.65;0.17;;;;;;;34.74;36.88;97163.38;5006797;28;20073;-56
2023/10/21 11:05:08;;;;;;;1.77;0.30;;;;;;;33.11;37.59;97166.19;5016476;28;20057;-58
2023/10/21 11:07:34;;;;;;;1.83;0.30;;;;;;;30.66;40.52;97172.38;5014620;28;20124;-58
2023/10/21 11:10:07;;;;;;;0.85;0.10;;;;;;;27.20;45.45;97173.38;5018150;28;20152;-55
2023/10/21 11:12:32;;;;;;;0.32;0.10;;;;;;;26.07;48.76;97174.97;5018108;28;20029;-55
2023/10/21 11:15:00;;;;;;;0.80;0.25;;;;;;;27.68;48.42;97159.63;5014942;28;20022;-55
2023/10/21 11:17:26;;;;;;;0.33;0.20;;;;;;;27.18;50.18;97172.13;5006860;28;20049;-55
2023/10/21 11:19:51;;;;;;;0.73;0.10;;;;;;;26.32;49.86;97174.97;5042986;28;20442;-55
2023/10/21 11:22:21;;;;;;;1.17;0.30;;;;;;;26.18;51.18;97178.09;5000394;28;20081;-57
2023/10/21 11:24:47;;;;;;;0.85;0.10;;;;;;;26.95;50.41;97174.56;5022778;28;20021;-56
2023/10/21 11:27:15;;;;;;;0.88;0.20;;;;;;;25.76;52.27;97164.38;5028832;28;20096;-56
2023/10/21 11:29:40;;;;;;;1.63;0.30;;;;;;;25.18;53.47;97169.81;5015540;28;20037;-56